Terminal Aerodrome Forecast
Issued by NWS Topeka, KS

Home | Current Version | Previous Version | Text Only | Print | Product List | Glossary Off
Versions: 1 2 3 4 5 6 7 8 9 10 11 12 13 14 15 16 17 18 19 20 21 22 23 24 25 26

545
FTUS43 KTOP 220412 AAA
TAFTOP
TAF AMD
KTOP 220412Z 2204/2224 06009KT 6SM -FZDZ OVC015
      TEMPO 2205/2209 06008KT 3SM -FZRASNPL OVC015
     FM220900 07007KT 5SM -FZRAPL OVC008
     FM221300 08006KT 2SM -FZDZ OVC005
     FM221900 09005KT 5SM -FZRA OVC005=

USA.gov is the U.S. government's official web portal to all federal, state and local government web resources and services.